Time;durP1;ratioP1;P1;durP2;ratioP2;P2;SDS_P1;SDS_P2;PMS_P1;PMS_P2;Temp;Humidity;BMP_temperature;BMP_pressure;BME280_temperature;BME280_humidity;BME280_pressure;Samples;Min_cycle;Max_cycle;Signal;HPM_P1;HPM_P2
2021/11/20 00:00:10;;;;;;;22.67;12.05;;;;;;;;;;4406678;32;20038;-71
2021/11/20 00:02:35;;;;;;;17.67;10.95;;;;;;;;;;4407134;32;20038;-71
2021/11/20 00:05:03;;;;;;;;;;;;;;;;;;4406725;32;20473;-71
2021/11/20 00:07:29;;;;;;;20.10;9.93;;;;;;;;;;4406903;32;20382;-71
2021/11/20 00:09:54;;;;;;;;;;;;;;;;;;4406713;32;20026;-71
2021/11/20 00:12:21;;;;;;;13.43;9.25;;;;;;;;;;4406200;32;19937;-70
2021/11/20 00:14:47;;;;;;;14.20;9.63;;;;;;;;;;4407230;32;20089;-70
2021/11/20 00:17:12;;;;;;;;;;;;;;;;;;4406633;32;20026;-70
2021/11/20 00:19:37;;;;;;;17.20;11.70;;;;;;;;;;4406571;32;19948;-70
2021/11/20 00:22:15;;;;;;;;;;;;;;;;;;4406817;32;20034;-70
2021/11/20 00:25:23;;;;;;;31.00;14.48;;;;;;;;;;4406884;32;20361;-70
2021/11/20 00:27:59;;;;;;;25.37;13.62;;;;;;;;;;4405932;32;20465;-70
2021/11/20 00:30:54;;;;;;;24.75;15.50;;;;;;;;;;4406466;32;20030;-70
2021/11/20 00:33:21;;;;;;;20.60;14.45;;;;;;;;;;4407795;32;20030;-68
2021/11/20 00:35:46;;;;;;;19.77;13.60;;;;;;;;;;4406691;32;20042;-70
2021/11/20 00:38:11;;;;;;;;;;;;;;;;;;4406356;32;20376;-70
2021/11/20 00:40:38;;;;;;;27.35;17.45;;;;;;;;;;4405776;32;19952;-70
2021/11/20 00:43:04;;;;;;;22.10;17.30;;;;;;;;;;4406325;32;20026;-70
2021/11/20 00:45:29;;;;;;;;;;;;;;;;;;4406191;32;20056;-70
2021/11/20 00:47:54;;;;;;;24.77;18.42;;;;;;;;;;4406542;32;19971;-71
2021/11/20 00:53:25;;;;;;;28.70;19.75;;;;;;;;;;4406349;32;19936;-71
2021/11/20 00:55:51;;;;;;;31.48;22.58;;;;;;;;;;4406251;32;20061;-70
2021/11/20 00:58:16;;;;;;;;;;;;;;;;;;4407466;32;20386;-71
2021/11/20 01:00:43;;;;;;;28.67;21.65;;;;;;;;;;4406450;32;19933;-71
2021/11/20 01:03:09;;;;;;;27.30;20.75;;;;;;;;;;4405710;32;20043;-70
2021/11/20 01:05:34;;;;;;;;;;;;;;;;;;4406314;32;20340;-70
2021/11/20 01:08:00;;;;;;;29.58;20.60;;;;;;;;;;4406391;32;20007;-71
2021/11/20 01:10:25;;;;;;;;;;;;;;;;;;4406170;32;20034;-70
2021/11/20 01:12:50;;;;;;;39.05;24.00;;;;;;;;;;4405764;32;19979;-71
2021/11/20 01:15:15;;;;;;;;;;;;;;;;;;4405865;32;20490;-70
2021/11/20 01:17:43;;;;;;;29.37;21.20;;;;;;;;;;4405693;32;19948;-70
2021/11/20 01:20:12;;;;;;;24.20;20.60;;;;;;;;;;4405348;32;20061;-71
2021/11/20 01:22:40;;;;;;;26.08;22.02;;;;;;;;;;4405226;32;20064;-70
2021/11/20 01:25:22;;;;;;;26.87;21.52;;;;;;;;;;4406718;32;20049;-71
2021/11/20 01:27:56;;;;;;;29.48;22.00;;;;;;;;;;4389658;32;20049;-70
2021/11/20 01:30:22;;;;;;;28.48;22.15;;;;;;;;;;4405406;32;20056;-71
2021/11/20 01:32:47;;;;;;;;;;;;;;;;;;4405988;32;20038;-70
2021/11/20 01:35:13;;;;;;;31.23;23.25;;;;;;;;;;4404829;32;19979;-70
2021/11/20 01:37:41;;;;;;;;;;;;;;;;;;4392278;32;20126;-70
2021/11/20 01:40:08;;;;;;;30.58;23.08;;;;;;;;;;4405438;32;19938;-70
2021/11/20 01:42:35;;;;;;;34.13;23.92;;;;;;;;;;4405958;32;20111;-71
2021/11/20 01:45:04;;;;;;;32.70;23.67;;;;;;;;;;4406038;32;20030;-71
2021/11/20 01:47:43;;;;;;;33.22;24.63;;;;;;;;;;4405109;32;20060;-70
2021/11/20 01:50:11;;;;;;;33.88;24.48;;;;;;;;;;4392098;32;20022;-71
2021/11/20 01:52:47;;;;;;;33.88;24.35;;;;;;;;;;4406053;32;20038;-70
2021/11/20 01:55:32;;;;;;;33.95;25.62;;;;;;;;;;4405431;32;20034;-70
2021/11/20 01:58:03;;;;;;;31.77;23.73;;;;;;;;;;4391292;32;20021;-71
2021/11/20 02:03:58;;;;;;;35.55;25.12;;;;;;;;;;4376389;32;20031;-71
2021/11/20 02:06:42;;;;;;;37.70;26.67;;;;;;;;;;4402827;32;20027;-71
2021/11/20 02:09:15;;;;;;;36.72;26.12;;;;;;;;;;4405347;32;20056;-70
2021/11/20 02:11:45;;;;;;;41.33;27.75;;;;;;;;;;4390313;32;20066;-70
2021/11/20 02:14:12;;;;;;;37.05;25.15;;;;;;;;;;4376325;32;20476;-72
2021/11/20 02:16:45;;;;;;;39.90;25.62;;;;;;;;;;4386206;32;20031;-70
2021/11/20 02:19:17;;;;;;;34.10;25.37;;;;;;;;;;4390403;32;20069;-71
2021/11/20 02:21:42;;;;;;;39.47;27.70;;;;;;;;;;4390232;32;20049;-70
2021/11/20 02:24:07;;;;;;;;;;;;;;;;;;4390412;32;20336;-70
2021/11/20 02:26:33;;;;;;;36.92;26.77;;;;;;;;;;4390931;32;20317;-70
2021/11/20 02:28:58;;;;;;;;;;;;;;;;;;4390663;32;20054;-70
2021/11/20 02:31:26;;;;;;;39.85;25.77;;;;;;;;;;4404069;32;19937;-71
2021/11/20 02:40:07;;;;;;;39.58;25.55;;;;;;;;;;4390955;32;20447;-71
2021/11/20 02:42:33;;;;;;;36.47;24.80;;;;;;;;;;4356293;32;20057;-71
2021/11/20 02:44:58;;;;;;;;;;;;;;;;;;4390556;32;20027;-70
2021/11/20 02:47:25;;;;;;;41.75;27.52;;;;;;;;;;4399887;32;19993;-70
2021/11/20 02:49:51;;;;;;;33.33;24.98;;;;;;;;;;4407566;32;20031;-71
2021/11/20 02:52:17;;;;;;;;;;;;;;;;;;4408260;32;20042;-70
2021/11/20 02:54:42;;;;;;;37.22;25.23;;;;;;;;;;4408740;32;19949;-70
2021/11/20 02:57:07;;;;;;;;;;;;;;;;;;4420200;32;20045;-71
2021/11/20 02:59:33;;;;;;;32.25;23.92;;;;;;;;;;4423575;32;19933;-71
2021/11/20 03:01:58;;;;;;;;;;;;;;;;;;4414246;32;20034;-70
2021/11/20 03:04:24;;;;;;;30.75;23.23;;;;;;;;;;4408931;32;19950;-70
2021/11/20 03:06:52;;;;;;;;;;;;;;;;;;4408056;32;20030;-70
2021/11/20 03:09:20;;;;;;;31.67;22.30;;;;;;;;;;4408142;32;19938;-70
2021/11/20 03:11:46;;;;;;;28.67;21.75;;;;;;;;;;4393769;32;20027;-70
2021/11/20 03:14:13;;;;;;;;;;;;;;;;;;4407492;32;20061;-71
2021/11/20 03:16:40;;;;;;;29.42;21.50;;;;;;;;;;4407058;32;20349;-71
2021/11/20 03:19:08;;;;;;;31.58;23.05;;;;;;;;;;4407021;32;20042;-70
2021/11/20 03:21:34;;;;;;;29.83;20.52;;;;;;;;;;4393275;32;20030;-71
2021/11/20 03:23:59;;;;;;;;;;;;;;;;;;4407733;32;20064;-70
2021/11/20 03:26:25;;;;;;;30.98;22.02;;;;;;;;;;4407403;32;19937;-70
2021/11/20 03:28:50;;;;;;;;;;;;;;;;;;4407646;32;20099;-70
2021/11/20 03:31:16;;;;;;;30.62;21.67;;;;;;;;;;4406914;32;20294;-71
2021/11/20 03:33:41;;;;;;;28.05;21.80;;;;;;;;;;4393181;32;20330;-70
2021/11/20 03:36:06;;;;;;;;;;;;;;;;;;4409132;32;20360;-70
2021/11/20 03:38:32;;;;;;;27.67;21.27;;;;;;;;;;4407183;32;19941;-70
2021/11/20 03:40:57;;;;;;;;;;;;;;;;;;4407305;32;20077;-70
2021/11/20 03:43:23;;;;;;;31.67;21.73;;;;;;;;;;4408224;32;19971;-71
2021/11/20 03:45:48;;;;;;;;;;;;;;;;;;4408105;32;20195;-70
2021/11/20 03:48:16;;;;;;;27.27;20.85;;;;;;;;;;4406508;32;19938;-70
2021/11/20 03:50:42;;;;;;;26.98;21.00;;;;;;;;;;4407212;32;20145;-71
2021/11/20 03:53:28;;;;;;;;;;;;;;;;;;4407321;32;20123;-70
2021/11/20 04:02:13;;;;;;;27.77;21.27;;;;;;;;;;4330278;33;20521;-70
2021/11/20 04:05:03;;;;;;;23.77;18.80;;;;;;;;;;4403896;32;20041;-70
2021/11/20 04:07:28;;;;;;;33.42;22.08;;;;;;;;;;4407186;32;20025;-70
2021/11/20 04:09:53;;;;;;;;;;;;;;;;;;4407042;32;20038;-70
2021/11/20 04:12:19;;;;;;;30.17;21.98;;;;;;;;;;4406396;32;19980;-70
2021/11/20 04:14:44;;;;;;;;;;;;;;;;;;4408823;32;20049;-70
2021/11/20 04:17:09;;;;;;;28.70;21.90;;;;;;;;;;4406170;32;19937;-70
2021/11/20 04:19:35;;;;;;;;;;;;;;;;;;4406664;32;20030;-70
2021/11/20 04:22:03;;;;;;;33.38;22.87;;;;;;;;;;4407337;32;20378;-70
2021/11/20 04:24:28;;;;;;;33.65;23.87;;;;;;;;;;4406694;32;20417;-70
2021/11/20 04:26:53;;;;;;;;;;;;;;;;;;4407429;32;20053;-70
2021/11/20 04:29:19;;;;;;;28.85;22.15;;;;;;;;;;4406567;32;19934;-70
2021/11/20 04:31:44;;;;;;;;;;;;;;;;;;4406617;32;20372;-71
2021/11/20 04:34:09;;;;;;;23.05;18.35;;;;;;;;;;4406097;32;19975;-71
2021/11/20 04:36:34;;;;;;;;;;;;;;;;;;4406457;32;20376;-70
2021/11/20 04:39:00;;;;;;;23.75;18.00;;;;;;;;;;4406014;32;20357;-70
2021/11/20 04:41:25;;;;;;;;;;;;;;;;;;4407208;32;20034;-70
2021/11/20 04:43:51;;;;;;;27.05;22.23;;;;;;;;;;4392467;32;19942;-70
2021/11/20 04:46:16;;;;;;;;;;;;;;;;;;4406718;32;20152;-70
2021/11/20 04:48:43;;;;;;;37.05;25.17;;;;;;;;;;4410126;32;19937;-70
2021/11/20 04:51:09;;;;;;;37.95;24.23;;;;;;;;;;4420808;32;20038;-71
2021/11/20 04:53:36;;;;;;;39.97;25.88;;;;;;;;;;4422447;32;20034;-71
2021/11/20 04:56:03;;;;;;;37.75;25.20;;;;;;;;;;4419746;32;20059;-71
2021/11/20 04:58:31;;;;;;;45.28;28.60;;;;;;;;;;4406490;32;20121;-71
2021/11/20 05:00:57;;;;;;;40.95;24.60;;;;;;;;;;4405536;32;20060;-70
2021/11/20 05:03:23;;;;;;;29.63;23.85;;;;;;;;;;4406018;32;20056;-70
2021/11/20 05:05:48;;;;;;;;;;;;;;;;;;4405569;32;20051;-71
2021/11/20 05:08:24;;;;;;;;;;;;;;;;;;;;;
2021/11/20 05:10:50;;;;;;;41.67;27.67;;;;;;;;;;4405590;32;20156;-70
2021/11/20 05:13:15;;;;;;;;;;;;;;;;;;4405559;32;20043;-70
2021/11/20 05:15:56;;;;;;;49.35;28.70;;;;;;;;;;4391785;32;20034;-70
2021/11/20 05:18:21;;;;;;;47.38;32.00;;;;;;;;;;4392969;32;20662;-70
2021/11/20 05:20:47;;;;;;;;;;;;;;;;;;4406877;32;20034;-70
2021/11/20 05:23:12;;;;;;;37.83;27.70;;;;;;;;;;4405506;32;19937;-70
2021/11/20 05:25:37;;;;;;;;;;;;;;;;;;4406560;32;20068;-70
2021/11/20 05:28:03;;;;;;;41.55;31.58;;;;;;;;;;4404966;32;19988;-70
2021/11/20 05:30:30;;;;;;;;;;;;;;;;;;4405940;32;20375;-70
2021/11/20 05:32:59;;;;;;;39.15;29.05;;;;;;;;;;4405306;32;20357;-70
2021/11/20 05:35:25;;;;;;;42.45;29.85;;;;;;;;;;4405541;32;20023;-70
2021/11/20 05:37:51;;;;;;;44.47;33.33;;;;;;;;;;4405298;32;20030;-70
2021/11/20 05:40:16;;;;;;;;;;;;;;;;;;4407556;32;20029;-71
2021/11/20 05:42:42;;;;;;;44.48;32.28;;;;;;;;;;4404537;32;19942;-70
2021/11/20 05:45:07;;;;;;;42.28;33.20;;;;;;;;;;4406429;32;20038;-70
2021/11/20 05:47:33;;;;;;;;;;;;;;;;;;4405520;32;20022;-70
2021/11/20 05:49:58;;;;;;;46.10;33.90;;;;;;;;;;4405210;32;19941;-70
2021/11/20 05:52:23;;;;;;;;;;;;;;;;;;4405660;32;20145;-70
2021/11/20 05:54:48;;;;;;;44.70;34.22;;;;;;;;;;4406796;32;19967;-70
2021/11/20 05:57:14;;;;;;;43.22;34.60;;;;;;;;;;4391363;32;20413;-70
2021/11/20 05:59:39;;;;;;;;;;;;;;;;;;4391653;32;20415;-70
2021/11/20 06:02:05;;;;;;;45.67;34.08;;;;;;;;;;4406113;32;19934;-70
2021/11/20 06:04:31;;;;;;;;;;;;;;;;;;4406939;32;20143;-70
2021/11/20 06:07:00;;;;;;;42.03;34.20;;;;;;;;;;4405447;32;20446;-70
2021/11/20 06:09:25;;;;;;;42.10;34.88;;;;;;;;;;4405842;32;20057;-70
2021/11/20 06:11:50;;;;;;;;;;;;;;;;;;4405020;32;20148;-70
2021/11/20 06:17:19;;;;;;;39.13;30.58;;;;;;;;;;4405871;32;20148;-69
2021/11/20 06:19:44;;;;;;;;;;;;;;;;;;4406243;32;20086;-70
2021/11/20 06:22:14;;;;;;;39.70;29.50;;;;;;;;;;4407470;32;19952;-70
2021/11/20 06:24:47;;;;;;;33.63;28.38;;;;;;;;;;4408647;32;20171;-70
2021/11/20 06:27:12;;;;;;;34.58;29.20;;;;;;;;;;4408962;32;20411;-70
2021/11/20 06:29:38;;;;;;;;;;;;;;;;;;4409199;32;20057;-70
2021/11/20 06:32:03;;;;;;;34.40;28.85;;;;;;;;;;4407715;32;19994;-70
2021/11/20 06:34:28;;;;;;;;;;;;;;;;;;4408067;32;20083;-71
2021/11/20 06:39:58;;;;;;;35.67;30.73;;;;;;;;;;4375681;32;20157;-70
2021/11/20 06:42:24;;;;;;;38.35;32.25;;;;;;;;;;4406726;32;20038;-70
2021/11/20 06:44:49;;;;;;;;;;;;;;;;;;4409581;32;20064;-70
2021/11/20 06:47:14;;;;;;;42.35;34.30;;;;;;;;;;4408486;32;19948;-70
2021/11/20 06:49:40;;;;;;;;;;;;;;;;;;4409675;32;20030;-70
2021/11/20 06:52:06;;;;;;;47.17;35.67;;;;;;;;;;4408334;32;19965;-70
2021/11/20 06:54:31;;;;;;;;;;;;;;;;;;4408418;32;20119;-72
2021/11/20 06:57:07;;;;;;;45.00;35.58;;;;;;;;;;4408388;32;19938;-70
2021/11/20 07:02:45;;;;;;;45.90;35.60;;;;;;;;;;4407214;32;20095;-70
2021/11/20 07:05:13;;;;;;;48.05;36.20;;;;;;;;;;4405325;32;20030;-70
2021/11/20 07:07:45;;;;;;;44.55;34.53;;;;;;;;;;4407596;32;20431;-70
2021/11/20 07:10:20;;;;;;;45.35;34.25;;;;;;;;;;4407473;32;20022;-70
2021/11/20 07:15:55;;;;;;;46.30;34.08;;;;;;;;;;4408680;32;20036;-70
2021/11/20 07:19:06;;;;;;;47.90;34.72;;;;;;;;;;4407073;32;20039;-70
2021/11/20 07:21:52;;;;;;;40.47;31.65;;;;;;;;;;4401824;32;20038;-70
2021/11/20 07:23:57;;;;;;;43.53;33.63;;;;;;;;;;4401717;32;20074;-71
2021/11/20 07:26:23;;;;;;;42.28;32.50;;;;;;;;;;4405470;32;20048;-72
2021/11/20 07:28:48;;;;;;;;;;;;;;;;;;4416055;32;20372;-73
2021/11/20 07:31:16;;;;;;;42.13;31.17;;;;;;;;;;4423337;32;19961;-66
2021/11/20 07:36:56;;;;;;;45.45;33.80;;;;;;;;;;4346231;32;20381;-70
2021/11/20 07:39:22;;;;;;;44.28;32.55;;;;;;;;;;4405215;32;20127;-70
2021/11/20 07:41:47;;;;;;;;;;;;;;;;;;4399601;32;20484;-71
2021/11/20 07:44:15;;;;;;;40.08;30.12;;;;;;;;;;4407033;32;19941;-70
2021/11/20 07:47:01;;;;;;;41.47;30.75;;;;;;;;;;4406378;32;20022;-70
2021/11/20 08:01:29;;;;;;;40.05;31.60;;;;;;;;;;4358717;32;20069;-69
2021/11/20 08:03:54;;;;;;;43.17;31.87;;;;;;;;;;4358915;32;20027;-69
2021/11/20 08:06:20;;;;;;;;;;;;;;;;;;4371742;32;20045;-70
2021/11/20 08:08:45;;;;;;;37.53;29.37;;;;;;;;;;4407674;32;19967;-70
2021/11/20 08:11:32;;;;;;;;;;;;;;;;;;4392529;32;20084;-70
2021/11/20 08:13:56;;;;;;;40.47;32.08;;;;;;;;;;4405069;32;19945;-69
2021/11/20 08:16:21;;;;;;;;;;;;;;;;;;4406147;32;20469;-70
2021/11/20 08:21:50;;;;;;;42.45;33.28;;;;;;;;;;4406837;32;20021;-70
2021/11/20 08:24:15;;;;;;;;;;;;;;;;;;4406046;32;20022;-70
2021/11/20 08:26:43;;;;;;;41.22;32.05;;;;;;;;;;4404872;32;20026;-71
2021/11/20 08:29:11;;;;;;;44.67;33.67;;;;;;;;;;4406443;32;20096;-71
2021/11/20 08:31:57;;;;;;;41.08;33.05;;;;;;;;;;4405600;32;20052;-70
2021/11/20 08:34:22;;;;;;;48.03;34.92;;;;;;;;;;4405037;32;20030;-70
2021/11/20 08:36:48;;;;;;;;;;;;;;;;;;4405966;32;20360;-70
2021/11/20 08:39:17;;;;;;;46.10;33.55;;;;;;;;;;4407097;32;19957;-70
2021/11/20 08:41:46;;;;;;;46.47;34.60;;;;;;;;;;4405472;32;20018;-70
2021/11/20 08:44:16;;;;;;;49.78;35.83;;;;;;;;;;4406576;32;20072;-70
2021/11/20 08:46:43;;;;;;;48.33;38.55;;;;;;;;;;4405898;32;20053;-70
2021/11/20 08:49:09;;;;;;;48.90;36.88;;;;;;;;;;4406549;32;20367;-71
2021/11/20 08:51:36;;;;;;;;;;;;;;;;;;4405966;32;20075;-70
2021/11/20 08:54:02;;;;;;;49.08;37.90;;;;;;;;;;4391301;32;20321;-70
2021/11/20 08:56:27;;;;;;;;;;;;;;;;;;4405257;32;20035;-71
2021/11/20 08:58:53;;;;;;;48.97;37.05;;;;;;;;;;4392310;32;20353;-71
2021/11/20 09:01:18;;;;;;;;;;;;;;;;;;4405578;32;20471;-71
2021/11/20 09:03:56;;;;;;;52.53;37.30;;;;;;;;;;4404338;32;20036;-70
2021/11/20 09:06:31;;;;;;;54.83;39.00;;;;;;;;;;4405844;32;20076;-70
2021/11/20 09:08:59;;;;;;;56.17;41.28;;;;;;;;;;4406865;32;20041;-71
2021/11/20 09:11:40;;;;;;;58.08;40.63;;;;;;;;;;4405356;32;20023;-70
2021/11/20 09:14:06;;;;;;;62.75;39.92;;;;;;;;;;4404668;32;20157;-70
2021/11/20 09:16:33;;;;;;;;;;;;;;;;;;4407302;32;20082;-70
2021/11/20 09:18:59;;;;;;;50.85;37.15;;;;;;;;;;4405878;32;20018;-70
2021/11/20 09:21:24;;;;;;;;;;;;;;;;;;4406296;32;20030;-70
2021/11/20 09:23:50;;;;;;;62.58;37.67;;;;;;;;;;4405407;32;19948;-71
2021/11/20 09:26:16;;;;;;;56.45;40.00;;;;;;;;;;4405782;32;20049;-71
2021/11/20 09:28:42;;;;;;;;;;;;;;;;;;4405516;32;20080;-70
2021/11/20 09:31:07;;;;;;;58.80;40.12;;;;;;;;;;4407215;32;19950;-71
2021/11/20 09:33:33;;;;;;;;;;;;;;;;;;4405775;32;20140;-71
2021/11/20 09:35:58;;;;;;;56.37;39.55;;;;;;;;;;4404971;32;19945;-71
2021/11/20 09:38:23;;;;;;;;;;;;;;;;;;4405418;32;20118;-71
2021/11/20 09:41:04;;;;;;;54.25;39.80;;;;;;;;;;4405026;32;20349;-71
2021/11/20 09:43:32;;;;;;;55.72;39.60;;;;;;;;;;4405923;32;20018;-70
2021/11/20 09:46:02;;;;;;;54.72;40.15;;;;;;;;;;4405339;32;20329;-70
2021/11/20 09:48:35;;;;;;;60.55;41.42;;;;;;;;;;4407148;32;20038;-70
2021/11/20 09:51:03;;;;;;;54.35;39.38;;;;;;;;;;4390025;32;20397;-70
2021/11/20 09:53:29;;;;;;;62.35;41.25;;;;;;;;;;4390726;32;20023;-70
2021/11/20 09:55:59;;;;;;;57.45;40.95;;;;;;;;;;4395702;32;20022;-70
2021/11/20 09:58:30;;;;;;;53.42;37.50;;;;;;;;;;4407748;32;20026;-70
2021/11/20 10:01:14;;;;;;;56.47;38.25;;;;;;;;;;4408885;32;20107;-70
2021/11/20 10:03:43;;;;;;;55.67;38.78;;;;;;;;;;4408108;32;20038;-70
2021/11/20 10:06:09;;;;;;;58.78;39.45;;;;;;;;;;4394383;32;20147;-70
2021/11/20 10:08:38;;;;;;;61.78;40.25;;;;;;;;;;4406772;32;20116;-70
2021/11/20 10:11:09;;;;;;;55.63;40.58;;;;;;;;;;4407874;32;20466;-70
2021/11/20 10:13:52;;;;;;;61.33;40.80;;;;;;;;;;4408085;32;20177;-71
2021/11/20 10:16:23;;;;;;;56.22;39.08;;;;;;;;;;4394271;32;20069;-71
2021/11/20 10:19:05;;;;;;;53.53;38.67;;;;;;;;;;4408505;32;20083;-70
2021/11/20 10:21:33;;;;;;;51.63;36.97;;;;;;;;;;4409112;32;20014;-70
2021/11/20 10:24:21;;;;;;;54.92;36.55;;;;;;;;;;4408348;32;20022;-70
2021/11/20 10:26:58;;;;;;;53.95;37.97;;;;;;;;;;4408947;32;20084;-70
2021/11/20 10:29:29;;;;;;;53.35;39.03;;;;;;;;;;4395107;32;20117;-70
2021/11/20 10:32:26;;;;;;;53.72;40.35;;;;;;;;;;4408379;32;20044;-70
2021/11/20 10:34:57;;;;;;;55.40;39.75;;;;;;;;;;4384214;32;20065;-70
2021/11/20 10:37:33;;;;;;;50.45;37.85;;;;;;;;;;4393815;32;20038;-70
2021/11/20 10:40:00;;;;;;;57.78;38.20;;;;;;;;;;4409030;32;20014;-71
2021/11/20 10:42:29;;;;;;;66.12;40.75;;;;;;;;;;4407530;32;20116;-71
2021/11/20 10:45:02;;;;;;;47.67;36.03;;;;;;;;;;4407361;32;20038;-71
2021/11/20 10:47:39;;;;;;;52.10;39.13;;;;;;;;;;4407148;32;20416;-70
2021/11/20 10:50:25;;;;;;;51.53;37.38;;;;;;;;;;4394949;32;20074;-70
2021/11/20 10:53:07;;;;;;;48.65;37.30;;;;;;;;;;4408348;32;20070;-70
2021/11/20 10:55:37;;;;;;;48.75;36.72;;;;;;;;;;4405337;32;20062;-70
2021/11/20 10:58:09;;;;;;;47.50;35.85;;;;;;;;;;4405536;32;20026;-71
2021/11/20 11:00:53;;;;;;;51.20;38.53;;;;;;;;;;4420619;32;20061;-70
2021/11/20 11:03:18;;;;;;;50.47;37.50;;;;;;;;;;4422566;32;20018;-70
2021/11/20 11:05:43;;;;;;;;;;;;;;;;;;4422537;32;20351;-70
2021/11/20 11:08:30;;;;;;;53.50;36.92;;;;;;;;;;4416427;32;19997;-70
2021/11/20 11:11:02;;;;;;;59.22;39.92;;;;;;;;;;4406687;32;20126;-70
2021/11/20 11:13:45;;;;;;;52.62;38.72;;;;;;;;;;4407289;32;20035;-70
2021/11/20 11:16:16;;;;;;;52.85;35.63;;;;;;;;;;4407165;32;20026;-70
2021/11/20 11:19:00;;;;;;;55.15;38.80;;;;;;;;;;4408117;32;20451;-70
2021/11/20 11:21:44;;;;;;;50.42;35.42;;;;;;;;;;4392936;32;20480;-69
2021/11/20 11:24:28;;;;;;;51.55;35.05;;;;;;;;;;4407238;32;20053;-70
2021/11/20 11:26:55;;;;;;;51.42;36.72;;;;;;;;;;4393916;32;20113;-70
2021/11/20 11:29:41;;;;;;;49.53;34.65;;;;;;;;;;4391942;32;20023;-70
2021/11/20 11:32:07;;;;;;;54.33;35.75;;;;;;;;;;4392468;32;20397;-69
2021/11/20 11:34:33;;;;;;;;;;;;;;;;;;4392755;32;20022;-70
2021/11/20 11:37:06;;;;;;;48.33;33.47;;;;;;;;;;4393170;32;19980;-70
2021/11/20 11:39:37;;;;;;;46.08;32.53;;;;;;;;;;4393825;32;20085;-70
2021/11/20 11:42:22;;;;;;;56.65;37.05;;;;;;;;;;4407074;32;20053;-70
2021/11/20 11:45:07;;;;;;;52.25;36.33;;;;;;;;;;4406998;32;20038;-70
2021/11/20 11:47:46;;;;;;;51.67;33.47;;;;;;;;;;4405718;32;20052;-70
2021/11/20 11:50:28;;;;;;;48.63;32.50;;;;;;;;;;4408178;32;20087;-70
2021/11/20 11:53:22;;;;;;;52.45;32.55;;;;;;;;;;4408740;32;20050;-70
2021/11/20 11:55:58;;;;;;;49.75;33.17;;;;;;;;;;4351941;32;20109;-70
2021/11/20 11:58:53;;;;;;;48.55;32.55;;;;;;;;;;4407200;32;20404;-70
2021/11/20 12:01:21;;;;;;;52.30;33.40;;;;;;;;;;4407030;32;20406;-70
2021/11/20 12:03:59;;;;;;;48.08;33.25;;;;;;;;;;4406370;32;20069;-70
2021/11/20 12:06:27;;;;;;;53.33;35.42;;;;;;;;;;4405239;32;20082;-72
2021/11/20 12:08:54;;;;;;;54.72;35.03;;;;;;;;;;4391674;32;20048;-71
2021/11/20 12:12:03;;;;;;;51.28;34.15;;;;;;;;;;4405497;32;20068;-71
2021/11/20 12:17:49;;;;;;;53.17;34.22;;;;;;;;;;4405608;32;20132;-70
2021/11/20 12:20:25;;;;;;;47.60;32.77;;;;;;;;;;4406113;32;20026;-71
2021/11/20 12:23:48;;;;;;;47.83;32.50;;;;;;;;;;4392607;32;20041;-70
2021/11/20 12:26:11;;;;;;;53.72;35.03;;;;;;;;;;4403284;32;20041;-70
2021/11/20 12:28:41;;;;;;;55.60;33.65;;;;;;;;;;4400828;32;20023;-70
2021/11/20 12:31:16;;;;;;;53.35;34.17;;;;;;;;;;4391207;32;20038;-70
2021/11/20 12:34:01;;;;;;;56.72;36.13;;;;;;;;;;4398765;32;20058;-71
2021/11/20 12:36:48;;;;;;;50.85;33.00;;;;;;;;;;4406284;32;20060;-70
2021/11/20 12:39:36;;;;;;;55.75;33.00;;;;;;;;;;4407375;32;20030;-71
2021/11/20 12:42:20;;;;;;;52.38;33.72;;;;;;;;;;4406859;32;20006;-70
2021/11/20 12:45:08;;;;;;;51.45;32.78;;;;;;;;;;4406354;32;20030;-71
2021/11/20 12:47:46;;;;;;;53.92;33.90;;;;;;;;;;4377451;32;20052;-70
2021/11/20 12:50:24;;;;;;;53.58;31.55;;;;;;;;;;4406803;32;20458;-70
2021/11/20 12:52:56;;;;;;;50.92;31.80;;;;;;;;;;4392324;32;20034;-70
2021/11/20 12:55:24;;;;;;;50.10;30.77;;;;;;;;;;4406394;32;20038;-70
2021/11/20 12:57:53;;;;;;;49.08;31.65;;;;;;;;;;4406261;32;20048;-70
2021/11/20 13:00:36;;;;;;;52.83;30.98;;;;;;;;;;4404941;32;20042;-70
2021/11/20 13:03:04;;;;;;;50.12;31.37;;;;;;;;;;4406341;32;20107;-71
2021/11/20 13:05:56;;;;;;;53.42;32.97;;;;;;;;;;4391591;32;20015;-70
2021/11/20 13:08:21;;;;;;;59.05;33.38;;;;;;;;;;4402518;32;20029;-70
2021/11/20 13:10:46;;;;;;;;;;;;;;;;;;4405853;32;20022;-70
2021/11/20 13:13:20;;;;;;;52.35;32.03;;;;;;;;;;4406116;32;19997;-70
2021/11/20 13:16:04;;;;;;;56.22;33.42;;;;;;;;;;4406219;32;20467;-69
2021/11/20 13:18:32;;;;;;;46.42;29.80;;;;;;;;;;4405245;32;20026;-70
2021/11/20 13:21:11;;;;;;;49.40;31.55;;;;;;;;;;4406723;32;20030;-69
2021/11/20 13:23:37;;;;;;;48.50;30.98;;;;;;;;;;4404044;32;20034;-70
2021/11/20 13:26:02;;;;;;;;;;;;;;;;;;4405576;32;20383;-70
2021/11/20 13:28:41;;;;;;;46.13;28.45;;;;;;;;;;4406502;32;19945;-70
2021/11/20 13:31:07;;;;;;;51.50;31.98;;;;;;;;;;4405001;32;20022;-70
2021/11/20 13:33:33;;;;;;;51.88;31.83;;;;;;;;;;4404556;32;20056;-69
2021/11/20 13:35:58;;;;;;;;;;;;;;;;;;4392399;32;20023;-70
2021/11/20 13:38:33;;;;;;;53.97;32.53;;;;;;;;;;4399039;32;19952;-70
2021/11/20 13:41:05;;;;;;;50.20;31.60;;;;;;;;;;4376631;32;20068;-69
2021/11/20 13:43:35;;;;;;;51.80;32.72;;;;;;;;;;4390056;32;20052;-69
2021/11/20 13:46:03;;;;;;;50.30;31.45;;;;;;;;;;4401654;32;20458;-70
2021/11/20 13:48:31;;;;;;;50.65;33.03;;;;;;;;;;4405243;32;20026;-70
2021/11/20 13:51:16;;;;;;;57.53;35.33;;;;;;;;;;4405058;32;20106;-69
2021/11/20 13:53:47;;;;;;;54.65;33.17;;;;;;;;;;4405452;32;20050;-70
2021/11/20 13:56:12;;;;;;;57.50;35.45;;;;;;;;;;4394818;32;20061;-70
2021/11/20 13:58:38;;;;;;;;;;;;;;;;;;4401739;32;20396;-69
2021/11/20 14:01:06;;;;;;;58.92;35.55;;;;;;;;;;4390970;32;19948;-69
2021/11/20 14:03:32;;;;;;;54.25;34.35;;;;;;;;;;4406486;32;20062;-71
2021/11/20 14:05:58;;;;;;;62.15;37.85;;;;;;;;;;4399726;32;20061;-70
2021/11/20 14:08:39;;;;;;;;;;;;;;;;;;4390234;32;20113;-70
2021/11/20 14:11:13;;;;;;;66.22;36.88;;;;;;;;;;4403274;32;19941;-70
2021/11/20 14:13:38;;;;;;;59.45;36.65;;;;;;;;;;4405524;32;20073;-70
2021/11/20 14:16:04;;;;;;;;;;;;;;;;;;4392914;32;20340;-70
2021/11/20 14:18:30;;;;;;;61.50;36.90;;;;;;;;;;4404946;32;20348;-70
2021/11/20 14:21:00;;;;;;;62.72;37.95;;;;;;;;;;4405457;32;20040;-71
2021/11/20 14:23:27;;;;;;;57.13;36.72;;;;;;;;;;4404885;32;20049;-71
2021/11/20 14:26:02;;;;;;;60.22;38.15;;;;;;;;;;4406415;32;20074;-70
2021/11/20 14:28:39;;;;;;;61.57;36.33;;;;;;;;;;4405746;32;20108;-70
2021/11/20 14:31:04;;;;;;;;;;;;;;;;;;4404828;32;20022;-70
2021/11/20 14:33:47;;;;;;;62.60;37.72;;;;;;;;;;4404902;32;19945;-70
2021/11/20 14:36:22;;;;;;;57.10;36.15;;;;;;;;;;4409473;32;20144;-73
2021/11/20 14:42:07;;;;;;;63.87;38.38;;;;;;;;;;4405307;32;20046;-70
2021/11/20 14:44:36;;;;;;;62.47;37.30;;;;;;;;;;4407693;32;20047;-71
2021/11/20 14:47:09;;;;;;;64.85;37.30;;;;;;;;;;4403110;32;20038;-70
2021/11/20 14:49:35;;;;;;;60.35;37.92;;;;;;;;;;4403208;32;20022;-70
2021/11/20 14:52:17;;;;;;;61.25;37.95;;;;;;;;;;4404593;32;20030;-70
2021/11/20 14:54:49;;;;;;;59.72;36.33;;;;;;;;;;4405302;32;20105;-71
2021/11/20 14:57:17;;;;;;;61.13;37.90;;;;;;;;;;4405237;32;21367;-70
2021/11/20 14:59:44;;;;;;;60.47;36.72;;;;;;;;;;4405415;32;20541;-70
2021/11/20 15:02:13;;;;;;;59.78;37.05;;;;;;;;;;4394010;32;20019;-70
2021/11/20 15:04:38;;;;;;;59.55;37.67;;;;;;;;;;4407158;32;20026;-70
2021/11/20 15:07:18;;;;;;;;;;;;;;;;;;4408352;32;20044;-70
2021/11/20 15:09:56;;;;;;;73.93;42.40;;;;;;;;;;4407459;32;20307;-70
2021/11/20 15:12:50;;;;;;;79.15;41.55;;;;;;;;;;4407140;32;20196;-69
2021/11/20 15:15:25;;;;;;;80.38;43.85;;;;;;;;;;4405320;32;20065;-70
2021/11/20 15:18:03;;;;;;;88.57;44.63;;;;;;;;;;4407390;32;20070;-70
2021/11/20 15:20:39;;;;;;;;;;;;;;;;;;;;;
2021/11/20 15:23:31;;;;;;;85.43;44.60;;;;;;;;;;4404513;32;20424;-70
2021/11/20 15:26:07;;;;;;;73.80;41.40;;;;;;;;;;4384147;32;20095;-71
2021/11/20 15:28:38;;;;;;;80.28;44.67;;;;;;;;;;4391546;32;20116;-71
2021/11/20 15:31:03;;;;;;;85.50;46.20;;;;;;;;;;4392458;32;20447;-71
2021/11/20 15:33:32;;;;;;;;;;;;;;;;;;4407284;32;20022;-72
2021/11/20 15:36:01;;;;;;;75.95;44.13;;;;;;;;;;4406987;32;19938;-71
2021/11/20 15:38:26;;;;;;;85.03;46.35;;;;;;;;;;4409094;32;20042;-70
2021/11/20 15:40:51;;;;;;;;;;;;;;;;;;4406742;32;20427;-72
2021/11/20 15:43:17;;;;;;;82.72;47.35;;;;;;;;;;4397765;32;19998;-71
2021/11/20 15:45:42;;;;;;;;;;;;;;;;;;4395559;32;20026;-71
2021/11/20 15:48:07;;;;;;;91.70;50.65;;;;;;;;;;4405041;32;19945;-71
2021/11/20 15:50:32;;;;;;;;;;;;;;;;;;4391266;32;20118;-71
2021/11/20 15:53:04;;;;;;;89.90;50.17;;;;;;;;;;4396477;32;20241;-71
2021/11/20 15:55:31;;;;;;;94.97;52.72;;;;;;;;;;4395093;32;20326;-71
2021/11/20 15:57:56;;;;;;;101.57;55.22;;;;;;;;;;4414554;32;20064;-70
2021/11/20 16:00:29;;;;;;;;;;;;;;;;;;4405844;32;20069;-71
2021/11/20 16:02:56;;;;;;;100.28;53.70;;;;;;;;;;4406186;32;19937;-71